sensor_id;sensor_type;location;lat;lon;timestamp;pressure;altitude;pressure_sealevel;temperature;humidity
49459;BME280;35354;51.296;16.924;2022-08-14T00:02:13;99462.19;;;19.47;100.00
49459;BME280;35354;51.296;16.924;2022-08-14T00:04:39;99459.41;;;19.49;100.00
49459;BME280;35354;51.296;16.924;2022-08-14T00:07:05;99455.50;;;19.43;100.00
49459;BME280;35354;51.296;16.924;2022-08-14T00:09:30;99446.44;;;19.45;100.00
49459;BME280;35354;51.296;16.924;2022-08-14T00:11:56;99464.94;;;19.45;100.00
49459;BME280;35354;51.296;16.924;2022-08-14T00:14:22;99457.03;;;19.45;100.00
49459;BME280;35354;51.296;16.924;2022-08-14T00:16:48;99454.38;;;19.45;100.00
49459;BME280;35354;51.296;16.924;2022-08-14T00:19:14;99446.59;;;19.44;100.00
49459;BME280;35354;51.296;16.924;2022-08-14T00:21:40;99448.69;;;19.50;100.00
49459;BME280;35354;51.296;16.924;2022-08-14T00:24:05;99444.38;;;19.49;100.00
49459;BME280;35354;51.296;16.924;2022-08-14T00:26:31;99441.16;;;19.45;100.00
49459;BME280;35354;51.296;16.924;2022-08-14T00:28:56;99431.97;;;19.40;100.00
49459;BME280;35354;51.296;16.924;2022-08-14T00:31:22;99440.59;;;19.42;100.00
49459;BME280;35354;51.296;16.924;2022-08-14T00:33:47;99432.97;;;19.39;100.00
49459;BME280;35354;51.296;16.924;2022-08-14T00:36:13;99421.50;;;19.29;100.00
49459;BME280;35354;51.296;16.924;2022-08-14T00:38:38;99429.31;;;19.30;100.00
49459;BME280;35354;51.296;16.924;2022-08-14T00:41:05;99422.34;;;19.29;100.00
49459;BME280;35354;51.296;16.924;2022-08-14T00:43:35;99441.41;;;19.33;100.00
49459;BME280;35354;51.296;16.924;2022-08-14T00:46:03;99420.81;;;19.27;100.00
49459;BME280;35354;51.296;16.924;2022-08-14T00:48:29;99415.66;;;19.25;100.00
49459;BME280;35354;51.296;16.924;2022-08-14T00:50:54;99416.88;;;19.21;100.00
49459;BME280;35354;51.296;16.924;2022-08-14T00:53:20;99425.66;;;19.22;100.00
49459;BME280;35354;51.296;16.924;2022-08-14T00:55:49;99417.66;;;19.12;100.00
49459;BME280;35354;51.296;16.924;2022-08-14T00:58:15;99416.59;;;19.14;100.00
49459;BME280;35354;51.296;16.924;2022-08-14T01:00:57;99408.34;;;19.08;100.00
49459;BME280;35354;51.296;16.924;2022-08-14T01:03:24;99415.19;;;19.10;100.00
49459;BME280;35354;51.296;16.924;2022-08-14T01:05:51;99407.75;;;19.04;100.00
49459;BME280;35354;51.296;16.924;2022-08-14T01:08:22;99406.94;;;19.04;100.00
49459;BME280;35354;51.296;16.924;2022-08-14T01:10:48;99410.97;;;19.08;100.00
49459;BME280;35354;51.296;16.924;2022-08-14T01:13:17;99406.25;;;19.02;100.00
49459;BME280;35354;51.296;16.924;2022-08-14T01:15:47;99408.22;;;19.09;100.00
49459;BME280;35354;51.296;16.924;2022-08-14T01:18:13;99391.66;;;19.07;100.00
49459;BME280;35354;51.296;16.924;2022-08-14T01:20:58;99410.72;;;19.11;100.00
49459;BME280;35354;51.296;16.924;2022-08-14T01:23:51;99397.53;;;19.11;100.00
49459;BME280;35354;51.296;16.924;2022-08-14T01:26:18;99405.31;;;19.12;100.00
49459;BME280;35354;51.296;16.924;2022-08-14T01:28:46;99403.66;;;19.11;100.00
49459;BME280;35354;51.296;16.924;2022-08-14T01:31:17;99390.16;;;19.05;100.00
49459;BME280;35354;51.296;16.924;2022-08-14T01:33:44;99405.19;;;19.14;100.00
49459;BME280;35354;51.296;16.924;2022-08-14T01:36:13;99408.78;;;19.13;100.00
49459;BME280;35354;51.296;16.924;2022-08-14T01:38:41;99405.59;;;19.09;100.00
49459;BME280;35354;51.296;16.924;2022-08-14T01:41:10;99406.72;;;19.16;100.00
49459;BME280;35354;51.296;16.924;2022-08-14T01:43:45;99397.28;;;19.14;100.00
49459;BME280;35354;51.296;16.924;2022-08-14T01:46:13;99406.22;;;19.23;100.00
49459;BME280;35354;51.296;16.924;2022-08-14T01:48:40;99399.25;;;19.22;100.00
49459;BME280;35354;51.296;16.924;2022-08-14T01:51:10;99401.19;;;19.19;100.00
49459;BME280;35354;51.296;16.924;2022-08-14T01:53:37;99390.19;;;19.14;100.00
49459;BME280;35354;51.296;16.924;2022-08-14T01:56:04;99402.16;;;19.18;100.00
49459;BME280;35354;51.296;16.924;2022-08-14T01:58:30;99395.72;;;19.11;100.00
49459;BME280;35354;51.296;16.924;2022-08-14T02:00:56;99392.41;;;19.09;100.00
49459;BME280;35354;51.296;16.924;2022-08-14T02:03:28;99402.81;;;19.11;100.00
49459;BME280;35354;51.296;16.924;2022-08-14T02:06:00;99401.41;;;19.07;100.00
49459;BME280;35354;51.296;16.924;2022-08-14T02:08:26;99391.75;;;18.96;100.00
49459;BME280;35354;51.296;16.924;2022-08-14T02:10:57;99394.78;;;18.91;100.00
49459;BME280;35354;51.296;16.924;2022-08-14T02:13:44;99391.84;;;18.85;100.00
49459;BME280;35354;51.296;16.924;2022-08-14T02:16:10;99386.69;;;18.83;100.00
49459;BME280;35354;51.296;16.924;2022-08-14T02:18:37;99391.25;;;18.81;100.00
49459;BME280;35354;51.296;16.924;2022-08-14T02:21:03;99388.88;;;18.78;100.00
49459;BME280;35354;51.296;16.924;2022-08-14T02:23:30;99380.28;;;18.76;100.00
49459;BME280;35354;51.296;16.924;2022-08-14T02:25:56;99376.34;;;18.70;100.00
49459;BME280;35354;51.296;16.924;2022-08-14T02:28:24;99378.84;;;18.72;100.00
49459;BME280;35354;51.296;16.924;2022-08-14T02:30:50;99371.41;;;18.66;100.00
49459;BME280;35354;51.296;16.924;2022-08-14T02:33:15;99376.59;;;18.67;100.00
49459;BME280;35354;51.296;16.924;2022-08-14T02:35:41;99378.75;;;18.62;100.00
49459;BME280;35354;51.296;16.924;2022-08-14T02:38:07;99373.88;;;18.58;100.00
49459;BME280;35354;51.296;16.924;2022-08-14T02:40:34;99360.22;;;18.53;100.00
49459;BME280;35354;51.296;16.924;2022-08-14T02:43:02;99370.78;;;18.53;100.00
49459;BME280;35354;51.296;16.924;2022-08-14T02:45:28;99378.31;;;18.57;100.00
49459;BME280;35354;51.296;16.924;2022-08-14T02:47:57;99371.63;;;18.53;100.00
49459;BME280;35354;51.296;16.924;2022-08-14T02:50:22;99355.34;;;18.48;100.00
49459;BME280;35354;51.296;16.924;2022-08-14T02:52:48;99346.03;;;18.44;100.00
49459;BME280;35354;51.296;16.924;2022-08-14T02:55:13;99355.22;;;18.50;100.00
49459;BME280;35354;51.296;16.924;2022-08-14T02:57:38;99357.00;;;18.49;100.00
49459;BME280;35354;51.296;16.924;2022-08-14T03:00:05;99356.31;;;18.47;100.00
49459;BME280;35354;51.296;16.924;2022-08-14T03:02:30;99349.63;;;18.43;100.00
49459;BME280;35354;51.296;16.924;2022-08-14T03:04:57;99356.06;;;18.50;100.00
49459;BME280;35354;51.296;16.924;2022-08-14T03:07:23;99359.41;;;18.52;100.00
49459;BME280;35354;51.296;16.924;2022-08-14T03:09:49;99355.09;;;18.51;100.00
49459;BME280;35354;51.296;16.924;2022-08-14T03:12:15;99351.63;;;18.51;100.00
49459;BME280;35354;51.296;16.924;2022-08-14T03:14:40;99349.81;;;18.51;100.00
49459;BME280;35354;51.296;16.924;2022-08-14T03:17:12;99348.16;;;18.50;100.00
49459;BME280;35354;51.296;16.924;2022-08-14T03:19:39;99329.81;;;18.49;100.00
49459;BME280;35354;51.296;16.924;2022-08-14T03:22:04;99345.56;;;18.60;100.00
49459;BME280;35354;51.296;16.924;2022-08-14T03:24:30;99342.41;;;18.66;100.00
49459;BME280;35354;51.296;16.924;2022-08-14T03:26:55;99334.47;;;18.66;100.00
49459;BME280;35354;51.296;16.924;2022-08-14T03:29:21;99346.94;;;18.75;100.00
49459;BME280;35354;51.296;16.924;2022-08-14T03:31:46;99343.19;;;18.78;100.00
49459;BME280;35354;51.296;16.924;2022-08-14T03:34:15;99345.44;;;18.82;100.00
49459;BME280;35354;51.296;16.924;2022-08-14T03:36:41;99345.88;;;18.87;100.00
49459;BME280;35354;51.296;16.924;2022-08-14T03:39:09;99327.94;;;18.81;100.00
49459;BME280;35354;51.296;16.924;2022-08-14T03:41:35;99339.50;;;18.90;100.00
49459;BME280;35354;51.296;16.924;2022-08-14T03:44:03;99321.44;;;18.85;100.00
49459;BME280;35354;51.296;16.924;2022-08-14T03:46:31;99316.66;;;18.79;100.00
49459;BME280;35354;51.296;16.924;2022-08-14T03:48:57;99333.41;;;18.89;100.00
49459;BME280;35354;51.296;16.924;2022-08-14T03:51:26;99322.53;;;18.83;100.00
49459;BME280;35354;51.296;16.924;2022-08-14T03:53:54;99326.31;;;18.90;100.00
49459;BME280;35354;51.296;16.924;2022-08-14T03:56:21;99331.34;;;18.93;100.00
49459;BME280;35354;51.296;16.924;2022-08-14T03:58:50;99330.22;;;18.95;100.00
49459;BME280;35354;51.296;16.924;2022-08-14T04:01:18;99322.88;;;18.99;100.00
49459;BME280;35354;51.296;16.924;2022-08-14T04:03:47;99316.34;;;18.93;100.00
49459;BME280;35354;51.296;16.924;2022-08-14T04:06:12;99326.22;;;19.01;100.00
49459;BME280;35354;51.296;16.924;2022-08-14T04:08:39;99329.56;;;19.03;100.00
49459;BME280;35354;51.296;16.924;2022-08-14T04:11:06;99322.34;;;19.05;100.00
49459;BME280;35354;51.296;16.924;2022-08-14T04:13:33;99328.91;;;19.11;100.00
49459;BME280;35354;51.296;16.924;2022-08-14T04:16:07;99311.66;;;19.07;100.00
49459;BME280;35354;51.296;16.924;2022-08-14T04:18:35;99324.63;;;19.19;100.00
49459;BME280;35354;51.296;16.924;2022-08-14T04:21:04;99328.97;;;19.30;100.00
49459;BME280;35354;51.296;16.924;2022-08-14T04:23:29;99331.88;;;19.37;100.00
49459;BME280;35354;51.296;16.924;2022-08-14T04:25:56;99324.28;;;19.43;100.00
49459;BME280;35354;51.296;16.924;2022-08-14T04:28:21;99326.09;;;19.53;100.00
49459;BME280;35354;51.296;16.924;2022-08-14T04:30:46;99319.00;;;19.53;100.00
49459;BME280;35354;51.296;16.924;2022-08-14T04:33:12;99334.47;;;19.67;100.00
49459;BME280;35354;51.296;16.924;2022-08-14T04:35:38;99323.53;;;19.72;100.00
49459;BME280;35354;51.296;16.924;2022-08-14T04:38:09;99324.78;;;19.78;100.00
49459;BME280;35354;51.296;16.924;2022-08-14T04:40:54;99315.03;;;19.78;100.00
49459;BME280;35354;51.296;16.924;2022-08-14T04:43:38;99314.75;;;19.81;100.00
49459;BME280;35354;51.296;16.924;2022-08-14T04:46:14;99323.94;;;19.87;100.00
49459;BME280;35354;51.296;16.924;2022-08-14T04:48:40;99315.72;;;19.90;100.00
49459;BME280;35354;51.296;16.924;2022-08-14T04:51:12;99316.28;;;19.93;100.00
49459;BME280;35354;51.296;16.924;2022-08-14T04:53:40;99296.25;;;19.91;100.00
49459;BME280;35354;51.296;16.924;2022-08-14T04:56:15;99299.31;;;19.96;100.00
49459;BME280;35354;51.296;16.924;2022-08-14T04:58:41;99298.75;;;20.02;100.00
49459;BME280;35354;51.296;16.924;2022-08-14T05:01:08;99300.16;;;20.06;100.00
49459;BME280;35354;51.296;16.924;2022-08-14T05:03:35;99306.53;;;20.13;100.00
49459;BME280;35354;51.296;16.924;2022-08-14T05:06:06;99305.28;;;20.08;100.00
49459;BME280;35354;51.296;16.924;2022-08-14T05:08:33;99315.31;;;20.04;100.00
49459;BME280;35354;51.296;16.924;2022-08-14T05:11:00;99308.38;;;19.93;100.00
49459;BME280;35354;51.296;16.924;2022-08-14T05:13:28;99314.34;;;19.96;100.00
49459;BME280;35354;51.296;16.924;2022-08-14T05:15:56;99305.44;;;19.87;100.00
49459;BME280;35354;51.296;16.924;2022-08-14T05:18:28;99302.09;;;19.85;100.00
49459;BME280;35354;51.296;16.924;2022-08-14T05:20:55;99301.66;;;19.80;100.00
49459;BME280;35354;51.296;16.924;2022-08-14T05:23:23;99309.31;;;19.83;100.00
49459;BME280;35354;51.296;16.924;2022-08-14T05:25:52;99300.72;;;19.81;100.00
49459;BME280;35354;51.296;16.924;2022-08-14T05:28:21;99306.38;;;19.76;100.00
49459;BME280;35354;51.296;16.924;2022-08-14T05:30:49;99321.28;;;19.77;100.00
49459;BME280;35354;51.296;16.924;2022-08-14T05:33:17;99310.00;;;19.75;100.00
49459;BME280;35354;51.296;16.924;2022-08-14T05:35:46;99301.66;;;19.70;100.00
49459;BME280;35354;51.296;16.924;2022-08-14T05:38:14;99299.31;;;19.77;100.00
49459;BME280;35354;51.296;16.924;2022-08-14T05:40:42;99311.84;;;19.94;100.00
49459;BME280;35354;51.296;16.924;2022-08-14T05:43:07;99294.59;;;19.90;100.00
49459;BME280;35354;51.296;16.924;2022-08-14T05:45:33;99296.53;;;19.88;100.00
49459;BME280;35354;51.296;16.924;2022-08-14T05:48:00;99300.56;;;19.82;100.00
49459;BME280;35354;51.296;16.924;2022-08-14T05:50:25;99295.28;;;19.82;100.00
49459;BME280;35354;51.296;16.924;2022-08-14T05:52:51;99298.06;;;19.90;100.00
49459;BME280;35354;51.296;16.924;2022-08-14T05:55:16;99288.47;;;19.89;100.00
49459;BME280;35354;51.296;16.924;2022-08-14T05:57:55;99299.56;;;19.93;100.00
49459;BME280;35354;51.296;16.924;2022-08-14T06:00:24;99313.78;;;19.92;100.00
49459;BME280;35354;51.296;16.924;2022-08-14T06:02:50;99299.03;;;19.89;100.00
49459;BME280;35354;51.296;16.924;2022-08-14T06:05:16;99302.50;;;20.00;100.00
49459;BME280;35354;51.296;16.924;2022-08-14T06:07:41;99301.09;;;20.05;100.00
49459;BME280;35354;51.296;16.924;2022-08-14T06:10:07;99293.59;;;20.10;100.00
49459;BME280;35354;51.296;16.924;2022-08-14T06:12:34;99285.25;;;20.05;100.00
49459;BME280;35354;51.296;16.924;2022-08-14T06:15:00;99292.66;;;20.02;100.00
49459;BME280;35354;51.296;16.924;2022-08-14T06:17:25;99298.31;;;19.97;100.00
49459;BME280;35354;51.296;16.924;2022-08-14T06:19:51;99287.09;;;19.85;100.00
49459;BME280;35354;51.296;16.924;2022-08-14T06:22:17;99280.69;;;19.78;100.00
49459;BME280;35354;51.296;16.924;2022-08-14T06:24:42;99278.88;;;19.79;100.00
49459;BME280;35354;51.296;16.924;2022-08-14T06:27:08;99276.63;;;19.74;100.00
49459;BME280;35354;51.296;16.924;2022-08-14T06:29:33;99276.34;;;19.67;100.00
49459;BME280;35354;51.296;16.924;2022-08-14T06:32:01;99287.47;;;19.71;100.00
49459;BME280;35354;51.296;16.924;2022-08-14T06:34:26;99274.84;;;19.65;100.00
49459;BME280;35354;51.296;16.924;2022-08-14T06:36:51;99270.94;;;19.69;100.00
49459;BME280;35354;51.296;16.924;2022-08-14T06:39:17;99281.63;;;19.67;100.00
49459;BME280;35354;51.296;16.924;2022-08-14T06:41:43;99286.66;;;19.71;100.00
49459;BME280;35354;51.296;16.924;2022-08-14T06:44:08;99286.91;;;19.67;100.00
49459;BME280;35354;51.296;16.924;2022-08-14T06:46:34;99273.16;;;19.64;100.00
49459;BME280;35354;51.296;16.924;2022-08-14T06:48:59;99275.50;;;19.67;100.00
49459;BME280;35354;51.296;16.924;2022-08-14T06:51:25;99272.47;;;19.62;100.00
49459;BME280;35354;51.296;16.924;2022-08-14T06:53:50;99269.81;;;19.62;100.00
49459;BME280;35354;51.296;16.924;2022-08-14T06:56:15;99268.31;;;19.69;100.00
49459;BME280;35354;51.296;16.924;2022-08-14T06:58:41;99267.88;;;19.74;100.00
49459;BME280;35354;51.296;16.924;2022-08-14T07:01:06;99246.91;;;19.72;100.00
49459;BME280;35354;51.296;16.924;2022-08-14T07:03:50;99262.84;;;19.80;100.00
49459;BME280;35354;51.296;16.924;2022-08-14T07:06:34;99250.09;;;19.85;100.00
49459;BME280;35354;51.296;16.924;2022-08-14T07:09:00;99265.22;;;19.93;100.00
49459;BME280;35354;51.296;16.924;2022-08-14T07:11:25;99250.63;;;19.99;100.00
49459;BME280;35354;51.296;16.924;2022-08-14T07:13:51;99253.66;;;20.04;100.00
49459;BME280;35354;51.296;16.924;2022-08-14T07:16:17;99262.97;;;20.17;100.00
49459;BME280;35354;51.296;16.924;2022-08-14T07:18:42;99259.75;;;20.24;100.00
49459;BME280;35354;51.296;16.924;2022-08-14T07:21:09;99251.13;;;20.22;100.00
49459;BME280;35354;51.296;16.924;2022-08-14T07:23:35;99254.88;;;20.29;100.00
49459;BME280;35354;51.296;16.924;2022-08-14T07:26:01;99269.59;;;20.41;100.00
49459;BME280;35354;51.296;16.924;2022-08-14T07:28:32;99244.13;;;20.40;100.00
49459;BME280;35354;51.296;16.924;2022-08-14T07:31:01;99247.72;;;20.39;100.00
49459;BME280;35354;51.296;16.924;2022-08-14T07:33:35;99261.22;;;20.46;100.00
49459;BME280;35354;51.296;16.924;2022-08-14T07:36:04;99256.94;;;20.35;100.00
49459;BME280;35354;51.296;16.924;2022-08-14T07:38:30;99264.59;;;20.38;100.00
49459;BME280;35354;51.296;16.924;2022-08-14T07:40:55;99268.91;;;20.39;100.00
49459;BME280;35354;51.296;16.924;2022-08-14T07:43:21;99270.88;;;20.37;100.00
49459;BME280;35354;51.296;16.924;2022-08-14T07:45:47;99273.91;;;20.42;100.00
49459;BME280;35354;51.296;16.924;2022-08-14T07:48:13;99268.47;;;20.43;100.00
49459;BME280;35354;51.296;16.924;2022-08-14T07:50:38;99267.66;;;20.53;100.00
49459;BME280;35354;51.296;16.924;2022-08-14T07:53:05;99257.63;;;20.56;100.00
49459;BME280;35354;51.296;16.924;2022-08-14T07:55:33;99249.69;;;20.56;100.00
49459;BME280;35354;51.296;16.924;2022-08-14T07:57:59;99258.97;;;20.60;100.00
49459;BME280;35354;51.296;16.924;2022-08-14T08:00:25;99248.69;;;20.57;100.00
49459;BME280;35354;51.296;16.924;2022-08-14T08:02:53;99253.00;;;20.58;100.00
49459;BME280;35354;51.296;16.924;2022-08-14T08:05:21;99245.78;;;20.51;100.00
49459;BME280;35354;51.296;16.924;2022-08-14T08:07:49;99238.41;;;20.44;100.00
49459;BME280;35354;51.296;16.924;2022-08-14T08:10:17;99258.75;;;20.44;100.00
49459;BME280;35354;51.296;16.924;2022-08-14T08:13:02;99254.03;;;20.28;100.00
49459;BME280;35354;51.296;16.924;2022-08-14T08:15:31;99273.78;;;20.34;100.00
49459;BME280;35354;51.296;16.924;2022-08-14T08:17:59;99274.63;;;20.34;100.00
49459;BME280;35354;51.296;16.924;2022-08-14T08:20:27;99253.63;;;20.33;100.00
49459;BME280;35354;51.296;16.924;2022-08-14T08:22:55;99259.88;;;20.32;100.00
49459;BME280;35354;51.296;16.924;2022-08-14T08:25:24;99263.63;;;20.29;100.00
49459;BME280;35354;51.296;16.924;2022-08-14T08:28:00;99256.97;;;20.25;100.00
49459;BME280;35354;51.296;16.924;2022-08-14T08:30:27;99240.69;;;20.20;100.00
49459;BME280;35354;51.296;16.924;2022-08-14T08:32:54;99251.69;;;20.25;100.00
49459;BME280;35354;51.296;16.924;2022-08-14T08:35:22;99249.59;;;20.29;100.00
49459;BME280;35354;51.296;16.924;2022-08-14T08:37:49;99237.91;;;20.31;100.00
49459;BME280;35354;51.296;16.924;2022-08-14T08:40:27;99253.56;;;20.42;100.00
49459;BME280;35354;51.296;16.924;2022-08-14T08:42:52;99233.94;;;20.45;100.00
49459;BME280;35354;51.296;16.924;2022-08-14T08:45:19;99238.13;;;20.57;100.00
49459;BME280;35354;51.296;16.924;2022-08-14T08:47:46;99251.56;;;20.74;100.00
49459;BME280;35354;51.296;16.924;2022-08-14T08:50:21;99232.38;;;20.89;100.00
49459;BME280;35354;51.296;16.924;2022-08-14T08:52:53;99230.25;;;21.03;100.00
49459;BME280;35354;51.296;16.924;2022-08-14T08:55:35;99215.13;;;21.13;100.00
49459;BME280;35354;51.296;16.924;2022-08-14T08:58:08;99224.84;;;21.40;100.00
49459;BME280;35354;51.296;16.924;2022-08-14T09:00:35;99216.38;;;21.72;100.00
49459;BME280;35354;51.296;16.924;2022-08-14T09:03:16;99220.91;;;22.06;100.00
49459;BME280;35354;51.296;16.924;2022-08-14T09:08:24;99205.53;;;22.70;100.00
49459;BME280;35354;51.296;16.924;2022-08-14T09:10:50;99222.81;;;23.08;100.00
49459;BME280;35354;51.296;16.924;2022-08-14T09:13:17;99216.53;;;23.25;100.00
49459;BME280;35354;51.296;16.924;2022-08-14T09:15:46;99217.06;;;23.45;100.00
49459;BME280;35354;51.296;16.924;2022-08-14T09:18:14;99201.66;;;23.81;100.00
49459;BME280;35354;51.296;16.924;2022-08-14T09:20:41;99208.59;;;24.15;100.00
49459;BME280;35354;51.296;16.924;2022-08-14T09:23:08;99215.91;;;24.37;100.00
49459;BME280;35354;51.296;16.924;2022-08-14T09:25:34;99206.56;;;24.33;100.00
49459;BME280;35354;51.296;16.924;2022-08-14T09:28:01;99210.22;;;24.32;100.00
49459;BME280;35354;51.296;16.924;2022-08-14T09:30:27;99207.28;;;24.19;100.00
49459;BME280;35354;51.296;16.924;2022-08-14T09:33:02;99216.75;;;23.97;100.00
49459;BME280;35354;51.296;16.924;2022-08-14T09:35:52;99212.78;;;23.93;100.00
49459;BME280;35354;51.296;16.924;2022-08-14T09:41:10;99195.84;;;23.78;100.00
49459;BME280;35354;51.296;16.924;2022-08-14T09:46:39;99190.78;;;24.24;100.00
49459;BME280;35354;51.296;16.924;2022-08-14T09:49:15;99184.25;;;24.43;100.00
49459;BME280;35354;51.296;16.924;2022-08-14T09:51:42;99181.88;;;24.56;100.00
49459;BME280;35354;51.296;16.924;2022-08-14T09:54:09;99170.72;;;24.60;100.00
49459;BME280;35354;51.296;16.924;2022-08-14T09:56:48;99189.25;;;24.85;100.00
49459;BME280;35354;51.296;16.924;2022-08-14T09:59:16;99184.03;;;25.00;100.00
49459;BME280;35354;51.296;16.924;2022-08-14T10:01:47;99166.00;;;25.02;100.00
49459;BME280;35354;51.296;16.924;2022-08-14T10:04:25;99159.03;;;25.01;100.00
49459;BME280;35354;51.296;16.924;2022-08-14T10:06:53;99165.47;;;24.83;99.87
49459;BME280;35354;51.296;16.924;2022-08-14T10:09:18;99160.06;;;24.60;100.00
49459;BME280;35354;51.296;16.924;2022-08-14T10:11:57;99161.72;;;24.70;100.00
49459;BME280;35354;51.296;16.924;2022-08-14T10:14:26;99149.59;;;24.90;99.69
49459;BME280;35354;51.296;16.924;2022-08-14T10:16:56;99158.94;;;25.17;99.41
49459;BME280;35354;51.296;16.924;2022-08-14T10:19:24;99155.28;;;25.18;98.01
49459;BME280;35354;51.296;16.924;2022-08-14T10:22:05;99151.75;;;24.95;98.46
49459;BME280;35354;51.296;16.924;2022-08-14T10:24:43;99155.06;;;24.66;100.00
49459;BME280;35354;51.296;16.924;2022-08-14T10:27:21;99149.16;;;24.39;100.00
49459;BME280;35354;51.296;16.924;2022-08-14T10:29:52;99153.00;;;24.45;100.00
49459;BME280;35354;51.296;16.924;2022-08-14T10:32:19;99152.97;;;24.53;100.00
49459;BME280;35354;51.296;16.924;2022-08-14T10:34:47;99156.56;;;24.60;100.00
49459;BME280;35354;51.296;16.924;2022-08-14T10:37:14;99151.78;;;24.55;100.00
49459;BME280;35354;51.296;16.924;2022-08-14T10:39:44;99160.31;;;24.43;100.00
49459;BME280;35354;51.296;16.924;2022-08-14T10:42:13;99161.13;;;24.35;100.00
49459;BME280;35354;51.296;16.924;2022-08-14T10:44:43;99149.84;;;24.33;100.00
49459;BME280;35354;51.296;16.924;2022-08-14T10:47:14;99146.34;;;24.41;100.00
49459;BME280;35354;51.296;16.924;2022-08-14T10:49:54;99147.13;;;24.57;100.00
49459;BME280;35354;51.296;16.924;2022-08-14T10:52:25;99142.38;;;24.99;99.17
49459;BME280;35354;51.296;16.924;2022-08-14T10:54:52;99141.53;;;24.98;97.48
49459;BME280;35354;51.296;16.924;2022-08-14T10:57:23;99127.72;;;24.72;96.99
49459;BME280;35354;51.296;16.924;2022-08-14T10:59:54;99130.16;;;24.50;97.90
49459;BME280;35354;51.296;16.924;2022-08-14T11:07:27;99131.16;;;23.94;98.53
49459;BME280;35354;51.296;16.924;2022-08-14T11:09:58;99121.00;;;23.97;97.40
49459;BME280;35354;51.296;16.924;2022-08-14T11:12:25;99136.94;;;24.05;97.02
49459;BME280;35354;51.296;16.924;2022-08-14T11:17:16;99130.50;;;23.92;97.96
49459;BME280;35354;51.296;16.924;2022-08-14T11:19:42;99139.16;;;23.94;97.98
49459;BME280;35354;51.296;16.924;2022-08-14T11:22:09;99133.19;;;23.67;98.68
49459;BME280;35354;51.296;16.924;2022-08-14T11:24:37;99133.84;;;23.53;99.86
49459;BME280;35354;51.296;16.924;2022-08-14T11:27:04;99136.31;;;23.38;100.00
49459;BME280;35354;51.296;16.924;2022-08-14T11:29:29;99132.34;;;23.09;100.00
49459;BME280;35354;51.296;16.924;2022-08-14T11:31:57;99129.31;;;23.04;100.00
49459;BME280;35354;51.296;16.924;2022-08-14T11:34:23;99127.00;;;22.93;100.00
49459;BME280;35354;51.296;16.924;2022-08-14T11:36:48;99137.63;;;22.93;100.00
49459;BME280;35354;51.296;16.924;2022-08-14T11:39:19;99138.13;;;22.97;100.00
49459;BME280;35354;51.296;16.924;2022-08-14T11:41:44;99139.94;;;22.96;100.00
49459;BME280;35354;51.296;16.924;2022-08-14T11:44:10;99127.28;;;22.82;100.00
49459;BME280;35354;51.296;16.924;2022-08-14T11:46:35;99127.44;;;22.80;100.00
49459;BME280;35354;51.296;16.924;2022-08-14T11:49:01;99130.53;;;22.59;100.00
49459;BME280;35354;51.296;16.924;2022-08-14T11:51:27;99139.25;;;22.44;100.00
49459;BME280;35354;51.296;16.924;2022-08-14T11:54:12;99135.97;;;22.15;100.00
49459;BME280;35354;51.296;16.924;2022-08-14T11:56:39;99151.41;;;21.94;100.00
49459;BME280;35354;51.296;16.924;2022-08-14T11:59:17;99133.06;;;21.57;100.00
49459;BME280;35354;51.296;16.924;2022-08-14T12:01:43;99145.91;;;21.43;100.00
49459;BME280;35354;51.296;16.924;2022-08-14T12:04:18;99149.06;;;21.29;100.00
49459;BME280;35354;51.296;16.924;2022-08-14T12:06:53;99148.81;;;20.87;100.00
49459;BME280;35354;51.296;16.924;2022-08-14T12:09:32;99156.00;;;20.49;100.00
49459;BME280;35354;51.296;16.924;2022-08-14T12:11:58;99142.69;;;20.31;100.00
49459;BME280;35354;51.296;16.924;2022-08-14T12:14:24;99127.72;;;20.12;100.00
49459;BME280;35354;51.296;16.924;2022-08-14T12:17:19;99132.41;;;20.28;100.00
49459;BME280;35354;51.296;16.924;2022-08-14T12:19:53;99101.88;;;20.34;100.00
49459;BME280;35354;51.296;16.924;2022-08-14T12:22:40;99110.41;;;20.83;100.00
49459;BME280;35354;51.296;16.924;2022-08-14T12:25:11;99094.38;;;21.20;100.00
49459;BME280;35354;51.296;16.924;2022-08-14T12:27:42;99108.69;;;21.71;100.00
49459;BME280;35354;51.296;16.924;2022-08-14T12:30:12;99096.75;;;22.01;100.00
49459;BME280;35354;51.296;16.924;2022-08-14T12:32:40;99098.25;;;22.30;100.00
49459;BME280;35354;51.296;16.924;2022-08-14T12:35:06;99085.03;;;22.38;100.00
49459;BME280;35354;51.296;16.924;2022-08-14T12:37:32;99089.59;;;22.28;100.00
49459;BME280;35354;51.296;16.924;2022-08-14T12:40:14;99112.03;;;22.33;100.00
49459;BME280;35354;51.296;16.924;2022-08-14T12:42:40;99090.41;;;22.20;100.00
49459;BME280;35354;51.296;16.924;2022-08-14T12:45:07;99095.78;;;22.36;100.00
49459;BME280;35354;51.296;16.924;2022-08-14T12:47:36;99079.53;;;22.39;100.00
49459;BME280;35354;51.296;16.924;2022-08-14T12:50:02;99086.19;;;22.44;100.00
49459;BME280;35354;51.296;16.924;2022-08-14T12:52:40;99085.03;;;22.38;100.00
49459;BME280;35354;51.296;16.924;2022-08-14T12:55:09;99086.13;;;22.27;100.00
49459;BME280;35354;51.296;16.924;2022-08-14T12:57:37;99089.31;;;22.39;100.00
49459;BME280;35354;51.296;16.924;2022-08-14T13:02:42;99081.19;;;22.40;100.00
49459;BME280;35354;51.296;16.924;2022-08-14T13:05:10;99076.91;;;22.48;100.00
49459;BME280;35354;51.296;16.924;2022-08-14T13:07:38;99088.06;;;22.59;100.00